Victor Silva

Olheiro - Internacional
25 Nov 2027
Quinta-feira
Processo

Personalidade

Adaptabilidade (11) Ambição (14) Controvérsia (6) Lealdade (19) Pressão (18) Profissionalismo (1) Espírito Esportivo (1) Temperamento (10)

Perfil

Estilo de Treinamento Democrático
Licença Continental Pro
Determinação 12
Gestão de Pessoas 12
Motivação 13
Disciplina 9
Satisfação no Trabalho
100%
Fadiga
0%
Função Olheiro
Salário 79.6K p/s
Contrato 14.03.2029

Desempenho

Comportamento Bom
Eficácia do Treinamento
41%
Desenvolvimento do Jogador
30%
Prevenção de Lesões
45%
Implementação Tática
35%

Eventos Recentes

Participou de uma reunião de recrutamento 7d atrás
Participou de uma reunião de recrutamento 7d atrás
Aniversário 7d atrás
Participou de uma reunião de recrutamento 14d atrás
Participou de uma reunião de recrutamento 14d atrás
Participou de uma reunião de recrutamento 21d atrás
Participou de uma reunião de recrutamento 21d atrás
Participou de uma reunião de recrutamento 28d atrás

Monitorando agora

92
Jogador Clube Status Habilidade Confiança Observado Última observação Último voto
Giorgian De Arrascaeta Flamengo Ativo 146 / 135 55% 1 28.06.2027 -
Jorge Ceará Ativo 106 / 109 55% 1 14.06.2027 -
Mats Wieffer Brighton Ativo 142 / 152 40% 2 31.05.2027 -
Kyle Walker-Peters West Ham United Ativo 135 / 141 40% 1 31.05.2027 -
Amine Adli Bournemouth Ativo 144 / 146 40% 1 30.05.2027 -
Boubacar Kamara Aston Villa Ativo 162 / 157 40% 1 30.05.2027 -
Nicolas Jackson Aston Villa Rejeitado 139 / 145 40% 3 27.05.2027 Rejeitar
Xavi Simons Tottenham Ativo 151 / 152 40% 1 27.05.2027 -
Giorgi Chakvetadze Watford Ativo 120 / 121 40% 1 25.05.2027 -
Kevin Fulham Ativo 144 / 157 40% 1 25.05.2027 -
Yankuba Minteh Brighton Ativo 161 / 161 40% 2 24.05.2027 -
Ethan Galbraith Swansea City Ativo 128 / 124 40% 2 23.05.2027 -
Luke McNally Bristol City Ativo 132 / 129 40% 1 23.05.2027 -
Adam Wharton Crystal Palace Ativo 143 / 147 40% 2 21.05.2027 -
Welington Southampton Ativo 139 / 125 40% 1 21.05.2027 -
Yehor Yarmoliuk Brentford Ativo 156 / 151 40% 3 17.05.2027 -
Adrien Truffert Bournemouth Ativo 159 / 144 40% 1 17.05.2027 Mais informações
Tom Fellows Southampton Ativo 125 / 137 40% 3 14.05.2027 -
Matt O'Riley Brighton Ativo 142 / 137 40% 1 14.05.2027 -
Shea Charles Southampton Ativo 141 / 133 40% 4 11.05.2027 -
Dango Ouattara Brentford Ativo 150 / 139 40% 3 10.05.2027 -
Alexis Saelemaekers AC Milan Ativo 163 / 144 40% 1 08.05.2027 -
Borja Sainz Fiorentina Ativo 155 / 141 40% 1 04.05.2027 -
Matías Soulé AS Roma Ativo 164 / 162 40% 3 03.05.2027 -
Georginio Rutter Brighton Ativo 141 / 142 40% 1 03.05.2027 -
Nico González Newcastle United Ativo 153 / 159 40% 1 29.04.2027 -
Curtis Jones Inter Ativo 157 / 163 40% 2 28.04.2027 -
Florentino Luís Ipswich Town Ativo 133 / 138 40% 1 28.04.2027 -
Jason Knight Bristol City Ativo 122 / 134 40% 1 27.04.2027 -
Derry Murkin Derby County Ativo 127 / 123 40% 2 25.04.2027 -
Callum Doyle Wrexham Ativo 135 / 135 40% 1 25.04.2027 -
Jacob Ramsey Newcastle United Ativo 145 / 147 40% 1 23.04.2027 -
Figueiredo Alverca Ativo 123 / 127 40% 1 23.04.2027 -
Jordan Holsgrove Estoril Praia Ativo 138 / 124 40% 2 22.04.2027 -
Ryan Sessegnon Fulham Ativo 149 / 146 40% 1 22.04.2027 -
Giacomo Raspadori Atalanta Ativo 139 / 148 40% 1 18.04.2027 -
Micky van de Ven Tottenham Ativo 153 / 159 40% 1 16.04.2027 -
Roberto Fernández Braga Ativo 137 / 143 40% 3 15.04.2027 -
Gianluca Prestianni Benfica Ativo 146 / 135 40% 2 14.04.2027 -
Morgan Whittaker Middlesbrough Ativo 134 / 124 40% 2 14.04.2027 -
Iván Fresneda Sporting CP Ativo 137 / 143 40% 7 13.04.2027 -
Mario Dorgeles Braga Ativo 127 / 133 40% 3 13.04.2027 -
Nathan Collins Brentford Ativo 137 / 139 40% 1 03.04.2027 -
Zeno Debast Sporting CP Ativo 135 / 140 40% 1 03.04.2027 -
Ozziel Herrera Tigres Ativo 128 / 127 40% 2 02.04.2027 -
Pau Víctor AVS Ativo 135 / 146 40% 2 02.04.2027 -
Marcelo Allende Mamelodi Sundowns Ativo 114 / 128 40% 4 27.03.2027 -
Víctor Gómez Braga Ativo 144 / 144 40% 1 27.03.2027 -
Christian Krasnodar Ativo 147 / 128 40% 1 26.03.2027 -
Jacques Ekomié Wrexham Ativo 129 / 122 40% 1 26.03.2027 -
Francisco Moura Lusitânia Lourosa Ativo 134 / 137 40% 1 24.03.2027 -
Tino Livramento Newcastle United Ativo 164 / 151 40% 1 22.03.2027 -
Finn Azaz Southampton Ativo 135 / 136 40% 1 17.03.2027 -
Kwadwo Baah Watford Ativo 124 / 135 40% 1 12.03.2027 -
Félix Lemaréchal Club Brugge Ativo 137 / 129 40% 1 09.03.2027 -
Paulinho Palmeiras Ativo 150 / 149 40% 1 07.03.2027 -
Santi García Gil Vicente Ativo 132 / 135 40% 1 04.03.2027 -
Razvan Balasa Crvena Zvezda Ativo 162 / 140 40% 1 01.03.2027 -
Heorhii Sudakov Benfica Ativo 141 / 143 40% 1 27.02.2027 -
Luís Guilherme Sporting CP Ativo 126 / 134 40% 3 14.02.2027 -
Diego Lainez Tigres Ativo 138 / 136 40% 1 14.02.2027 -
William Gomes Porto Ativo 134 / 142 40% 2 26.01.2027 -
Erick Sánchez OGC Nice Ativo 154 / 142 40% 1 22.01.2027 -
Marquinhos Spartak Moscow Ativo 113 / 137 40% 2 12.01.2027 -
Rémi Lemoine Chamois Niortais Ativo 165 / 154 40% 1 26.11.2026 -
Cristian Medina Botafogo Ativo 140 / 135 40% 1 24.11.2026 -
Lucas Duarte Felgueiras Ativo 114 / 98 40% 1 23.11.2026 -
Yousef Salech Cardiff City Ativo 137 / 132 40% 1 23.11.2026 -
Yanis Begraoui Estoril Praia Ativo 123 / 130 40% 3 21.11.2026 -
Vinícius Lopes Santa Clara Ativo 129 / 119 40% 1 07.11.2026 -
Manu Pozo Torreense Ativo 132 / 117 40% 2 05.11.2026 -
Pedro Bondo Famalicao Ativo 125 / 126 40% 1 05.11.2026 -
Martín Tejón Maritimo Ativo 108 / 122 40% 3 04.11.2026 -
Gustavo Silva Vitoria Guimaraes Ativo 124 / 124 40% 1 31.10.2026 -
Nicolò Tresoldi Club Brugge Ativo 121 / 142 40% 1 27.10.2026 -
Gabriel Veron Porto Ativo 115 / 135 40% 3 17.10.2026 -
Jalen Blesa Rio Ave Ativo 122 / 127 40% 1 14.10.2026 -
Dawda Camara Alverca Ativo 108 / 123 40% 1 14.10.2026 -
Vinicinho Bragantino Ativo 126 / 127 40% 1 12.10.2026 -
Lohann Doucet Vitoria Guimaraes Ativo 109 / 113 40% 1 12.10.2026 -
Manuel Ospina Cortulua Ativo 122 / 118 40% 1 11.10.2026 -
Fotis Ioannidis Rio Ave Ativo 146 / 129 40% 1 11.10.2026 -
Alfonso Trezza Arouca Ativo 118 / 128 40% 1 09.10.2026 -
Tadeo Allende Inter Miami CF Ativo 132 / 128 40% 1 05.10.2026 -
Rodrigo Pinheiro Famalicao Ativo 126 / 137 40% 1 28.09.2026 -
Zé Leite Leixões Ativo 121 / 123 40% 1 24.09.2026 -
Vangelis Pavlidis Twente Ativo 152 / 160 40% 1 12.09.2026 -
Elliot Anderson Manchester City Ativo 149 / 156 40% 1 10.09.2026 -
Mathias De Amorim Famalicao Ativo 118 / 142 40% 2 08.09.2026 -
Victor Froholdt Porto Ativo 143 / 151 40% 1 30.08.2026 -
Diogo Travassos Braga Ativo 110 / 121 40% 1 01.08.2026 -
Alberto Costa Porto Ativo 128 / 146 40% 1 01.08.2026 -